sensor_id;sensor_type;location;lat;lon;timestamp;P1;durP1;ratioP1;P2;durP2;ratioP2
27957;SDS011;15295;42.658;23.374;2022-12-18T00:01:40;10.57;;;6.53;;
27957;SDS011;15295;42.658;23.374;2022-12-18T00:04:05;9.45;;;6.05;;
27957;SDS011;15295;42.658;23.374;2022-12-18T00:06:33;10.30;;;6.43;;
27957;SDS011;15295;42.658;23.374;2022-12-18T00:08:59;8.45;;;5.55;;
27957;SDS011;15295;42.658;23.374;2022-12-18T00:11:30;9.77;;;6.03;;
27957;SDS011;15295;42.658;23.374;2022-12-18T00:14:01;10.55;;;6.75;;
27957;SDS011;15295;42.658;23.374;2022-12-18T00:16:28;9.75;;;6.60;;
27957;SDS011;15295;42.658;23.374;2022-12-18T00:18:59;9.32;;;6.40;;
27957;SDS011;15295;42.658;23.374;2022-12-18T00:21:28;11.40;;;7.65;;
27957;SDS011;15295;42.658;23.374;2022-12-18T00:23:58;11.43;;;7.10;;
27957;SDS011;15295;42.658;23.374;2022-12-18T00:26:26;11.30;;;6.50;;
27957;SDS011;15295;42.658;23.374;2022-12-18T00:28:54;9.43;;;6.68;;
27957;SDS011;15295;42.658;23.374;2022-12-18T00:31:23;9.93;;;6.72;;
27957;SDS011;15295;42.658;23.374;2022-12-18T00:33:53;11.32;;;7.15;;
27957;SDS011;15295;42.658;23.374;2022-12-18T00:36:21;11.20;;;7.20;;
27957;SDS011;15295;42.658;23.374;2022-12-18T00:38:48;10.52;;;6.80;;
27957;SDS011;15295;42.658;23.374;2022-12-18T00:41:15;10.52;;;6.53;;
27957;SDS011;15295;42.658;23.374;2022-12-18T00:44:06;11.80;;;7.18;;
27957;SDS011;15295;42.658;23.374;2022-12-18T00:46:39;11.18;;;7.18;;
27957;SDS011;15295;42.658;23.374;2022-12-18T00:49:14;11.13;;;7.05;;
27957;SDS011;15295;42.658;23.374;2022-12-18T00:51:41;11.43;;;6.97;;
27957;SDS011;15295;42.658;23.374;2022-12-18T00:54:07;11.43;;;7.13;;
27957;SDS011;15295;42.658;23.374;2022-12-18T00:56:35;10.23;;;6.43;;
27957;SDS011;15295;42.658;23.374;2022-12-18T00:59:03;12.38;;;7.07;;
27957;SDS011;15295;42.658;23.374;2022-12-18T01:01:29;11.93;;;7.00;;
27957;SDS011;15295;42.658;23.374;2022-12-18T01:04:01;9.63;;;6.90;;
27957;SDS011;15295;42.658;23.374;2022-12-18T01:06:33;11.05;;;7.18;;
27957;SDS011;15295;42.658;23.374;2022-12-18T01:09:25;11.70;;;6.97;;
27957;SDS011;15295;42.658;23.374;2022-12-18T01:11:51;13.30;;;7.30;;
27957;SDS011;15295;42.658;23.374;2022-12-18T01:14:18;11.90;;;7.40;;
27957;SDS011;15295;42.658;23.374;2022-12-18T01:16:45;13.63;;;7.45;;
27957;SDS011;15295;42.658;23.374;2022-12-18T01:21:59;13.15;;;7.15;;
27957;SDS011;15295;42.658;23.374;2022-12-18T01:24:25;12.73;;;7.65;;
27957;SDS011;15295;42.658;23.374;2022-12-18T01:26:51;13.52;;;7.93;;
27957;SDS011;15295;42.658;23.374;2022-12-18T01:29:17;10.55;;;7.00;;
27957;SDS011;15295;42.658;23.374;2022-12-18T01:34:17;13.38;;;7.72;;
27957;SDS011;15295;42.658;23.374;2022-12-18T01:36:47;11.73;;;7.10;;
27957;SDS011;15295;42.658;23.374;2022-12-18T01:39:13;11.90;;;7.57;;
27957;SDS011;15295;42.658;23.374;2022-12-18T01:41:40;12.00;;;7.80;;
27957;SDS011;15295;42.658;23.374;2022-12-18T01:47:09;12.82;;;7.13;;
27957;SDS011;15295;42.658;23.374;2022-12-18T01:55:29;12.65;;;8.32;;
27957;SDS011;15295;42.658;23.374;2022-12-18T01:58:06;14.60;;;8.38;;
27957;SDS011;15295;42.658;23.374;2022-12-18T02:00:51;15.18;;;8.55;;
27957;SDS011;15295;42.658;23.374;2022-12-18T02:03:31;13.75;;;8.23;;
27957;SDS011;15295;42.658;23.374;2022-12-18T02:08:43;13.82;;;7.95;;
27957;SDS011;15295;42.658;23.374;2022-12-18T02:19:58;14.13;;;8.52;;
27957;SDS011;15295;42.658;23.374;2022-12-18T02:29:03;13.25;;;8.27;;
27957;SDS011;15295;42.658;23.374;2022-12-18T02:31:40;12.00;;;7.28;;
27957;SDS011;15295;42.658;23.374;2022-12-18T02:34:22;13.35;;;8.27;;
27957;SDS011;15295;42.658;23.374;2022-12-18T02:36:51;14.88;;;8.18;;
27957;SDS011;15295;42.658;23.374;2022-12-18T02:39:25;14.35;;;8.18;;
27957;SDS011;15295;42.658;23.374;2022-12-18T02:41:53;12.27;;;8.68;;
27957;SDS011;15295;42.658;23.374;2022-12-18T02:44:21;13.05;;;7.85;;
27957;SDS011;15295;42.658;23.374;2022-12-18T02:46:50;11.77;;;7.45;;
27957;SDS011;15295;42.658;23.374;2022-12-18T03:00:39;12.18;;;7.57;;
27957;SDS011;15295;42.658;23.374;2022-12-18T03:03:12;14.20;;;8.07;;
27957;SDS011;15295;42.658;23.374;2022-12-18T03:05:50;13.68;;;8.85;;
27957;SDS011;15295;42.658;23.374;2022-12-18T03:10:56;12.38;;;8.00;;
27957;SDS011;15295;42.658;23.374;2022-12-18T03:13:27;13.70;;;7.93;;
27957;SDS011;15295;42.658;23.374;2022-12-18T03:16:04;12.65;;;8.57;;
27957;SDS011;15295;42.658;23.374;2022-12-18T03:18:46;12.52;;;8.30;;
27957;SDS011;15295;42.658;23.374;2022-12-18T03:21:39;13.20;;;8.30;;
27957;SDS011;15295;42.658;23.374;2022-12-18T03:26:55;11.45;;;7.85;;
27957;SDS011;15295;42.658;23.374;2022-12-18T03:29:38;12.77;;;8.40;;
27957;SDS011;15295;42.658;23.374;2022-12-18T03:32:14;13.13;;;7.30;;
27957;SDS011;15295;42.658;23.374;2022-12-18T03:34:45;12.52;;;8.10;;
27957;SDS011;15295;42.658;23.374;2022-12-18T03:37:15;14.15;;;7.90;;
27957;SDS011;15295;42.658;23.374;2022-12-18T03:39:41;13.52;;;8.45;;
27957;SDS011;15295;42.658;23.374;2022-12-18T03:42:08;17.63;;;8.98;;
27957;SDS011;15295;42.658;23.374;2022-12-18T03:47:49;12.57;;;7.75;;
27957;SDS011;15295;42.658;23.374;2022-12-18T03:50:29;14.95;;;8.30;;
27957;SDS011;15295;42.658;23.374;2022-12-18T03:55:50;12.73;;;7.53;;
27957;SDS011;15295;42.658;23.374;2022-12-18T03:58:17;13.68;;;7.72;;
27957;SDS011;15295;42.658;23.374;2022-12-18T04:00:47;15.38;;;8.00;;
27957;SDS011;15295;42.658;23.374;2022-12-18T04:03:18;14.32;;;8.43;;
27957;SDS011;15295;42.658;23.374;2022-12-18T04:08:14;12.63;;;8.23;;
27957;SDS011;15295;42.658;23.374;2022-12-18T04:10:40;13.63;;;7.93;;
27957;SDS011;15295;42.658;23.374;2022-12-18T04:13:07;14.63;;;8.43;;
27957;SDS011;15295;42.658;23.374;2022-12-18T04:15:36;11.98;;;7.40;;
27957;SDS011;15295;42.658;23.374;2022-12-18T04:18:03;16.40;;;8.10;;
27957;SDS011;15295;42.658;23.374;2022-12-18T04:20:29;14.15;;;8.30;;
27957;SDS011;15295;42.658;23.374;2022-12-18T04:22:55;15.70;;;8.38;;
27957;SDS011;15295;42.658;23.374;2022-12-18T04:25:20;15.50;;;9.02;;
27957;SDS011;15295;42.658;23.374;2022-12-18T04:27:47;15.20;;;7.80;;
27957;SDS011;15295;42.658;23.374;2022-12-18T04:30:19;15.13;;;8.57;;
27957;SDS011;15295;42.658;23.374;2022-12-18T04:32:45;13.90;;;8.23;;
27957;SDS011;15295;42.658;23.374;2022-12-18T04:35:10;15.05;;;9.07;;
27957;SDS011;15295;42.658;23.374;2022-12-18T04:37:37;17.00;;;9.35;;
27957;SDS011;15295;42.658;23.374;2022-12-18T04:40:04;13.93;;;8.50;;
27957;SDS011;15295;42.658;23.374;2022-12-18T04:42:30;18.20;;;9.55;;
27957;SDS011;15295;42.658;23.374;2022-12-18T04:44:55;17.63;;;9.80;;
27957;SDS011;15295;42.658;23.374;2022-12-18T04:47:20;17.33;;;9.77;;
27957;SDS011;15295;42.658;23.374;2022-12-18T04:49:46;16.40;;;9.68;;
27957;SDS011;15295;42.658;23.374;2022-12-18T04:52:11;14.82;;;9.70;;
27957;SDS011;15295;42.658;23.374;2022-12-18T04:54:37;17.95;;;10.10;;
27957;SDS011;15295;42.658;23.374;2022-12-18T04:57:02;16.85;;;9.63;;
27957;SDS011;15295;42.658;23.374;2022-12-18T04:59:27;18.23;;;10.50;;
27957;SDS011;15295;42.658;23.374;2022-12-18T05:01:54;20.38;;;10.48;;
27957;SDS011;15295;42.658;23.374;2022-12-18T05:04:29;21.90;;;11.93;;
27957;SDS011;15295;42.658;23.374;2022-12-18T05:06:54;20.30;;;11.10;;
27957;SDS011;15295;42.658;23.374;2022-12-18T05:09:19;19.02;;;10.77;;
27957;SDS011;15295;42.658;23.374;2022-12-18T05:11:45;20.90;;;11.18;;
27957;SDS011;15295;42.658;23.374;2022-12-18T05:14:11;18.30;;;10.48;;
27957;SDS011;15295;42.658;23.374;2022-12-18T05:16:39;20.42;;;11.02;;
27957;SDS011;15295;42.658;23.374;2022-12-18T05:19:09;24.52;;;11.88;;
27957;SDS011;15295;42.658;23.374;2022-12-18T05:21:36;21.52;;;12.38;;
27957;SDS011;15295;42.658;23.374;2022-12-18T05:24:01;24.80;;;13.07;;
27957;SDS011;15295;42.658;23.374;2022-12-18T05:26:30;20.83;;;11.00;;
27957;SDS011;15295;42.658;23.374;2022-12-18T05:28:56;20.15;;;12.10;;
27957;SDS011;15295;42.658;23.374;2022-12-18T05:31:21;20.63;;;11.05;;
27957;SDS011;15295;42.658;23.374;2022-12-18T05:33:47;21.75;;;11.60;;
27957;SDS011;15295;42.658;23.374;2022-12-18T05:36:17;22.40;;;11.57;;
27957;SDS011;15295;42.658;23.374;2022-12-18T05:38:54;24.88;;;11.90;;
27957;SDS011;15295;42.658;23.374;2022-12-18T05:41:35;20.42;;;11.57;;
27957;SDS011;15295;42.658;23.374;2022-12-18T05:44:01;22.92;;;12.52;;
27957;SDS011;15295;42.658;23.374;2022-12-18T05:46:27;24.00;;;12.40;;
27957;SDS011;15295;42.658;23.374;2022-12-18T05:48:53;21.23;;;11.88;;
27957;SDS011;15295;42.658;23.374;2022-12-18T05:51:20;22.50;;;11.55;;
27957;SDS011;15295;42.658;23.374;2022-12-18T05:53:47;24.38;;;10.90;;
27957;SDS011;15295;42.658;23.374;2022-12-18T05:56:14;23.65;;;12.55;;
27957;SDS011;15295;42.658;23.374;2022-12-18T05:58:50;22.48;;;12.02;;
27957;SDS011;15295;42.658;23.374;2022-12-18T06:01:18;24.35;;;13.05;;
27957;SDS011;15295;42.658;23.374;2022-12-18T06:03:53;25.95;;;13.60;;
27957;SDS011;15295;42.658;23.374;2022-12-18T06:06:25;24.05;;;12.88;;
27957;SDS011;15295;42.658;23.374;2022-12-18T06:09:02;26.02;;;12.40;;
27957;SDS011;15295;42.658;23.374;2022-12-18T06:11:35;25.30;;;13.13;;
27957;SDS011;15295;42.658;23.374;2022-12-18T06:14:02;26.08;;;13.43;;
27957;SDS011;15295;42.658;23.374;2022-12-18T06:16:30;26.40;;;13.57;;
27957;SDS011;15295;42.658;23.374;2022-12-18T06:19:00;25.75;;;13.52;;
27957;SDS011;15295;42.658;23.374;2022-12-18T06:21:34;25.30;;;13.67;;
27957;SDS011;15295;42.658;23.374;2022-12-18T06:23:59;26.83;;;13.80;;
27957;SDS011;15295;42.658;23.374;2022-12-18T06:26:25;24.83;;;13.63;;
27957;SDS011;15295;42.658;23.374;2022-12-18T06:28:51;23.80;;;13.23;;
27957;SDS011;15295;42.658;23.374;2022-12-18T06:31:17;26.65;;;13.90;;
27957;SDS011;15295;42.658;23.374;2022-12-18T06:33:42;27.20;;;15.15;;
27957;SDS011;15295;42.658;23.374;2022-12-18T06:36:11;26.73;;;14.30;;
27957;SDS011;15295;42.658;23.374;2022-12-18T06:38:38;24.95;;;13.18;;
27957;SDS011;15295;42.658;23.374;2022-12-18T06:41:08;29.38;;;14.43;;
27957;SDS011;15295;42.658;23.374;2022-12-18T06:43:37;28.20;;;14.50;;
27957;SDS011;15295;42.658;23.374;2022-12-18T06:46:03;25.50;;;14.15;;
27957;SDS011;15295;42.658;23.374;2022-12-18T06:48:29;27.35;;;14.88;;
27957;SDS011;15295;42.658;23.374;2022-12-18T06:50:55;25.48;;;13.85;;
27957;SDS011;15295;42.658;23.374;2022-12-18T06:53:21;24.73;;;13.48;;
27957;SDS011;15295;42.658;23.374;2022-12-18T06:55:46;27.80;;;14.40;;
27957;SDS011;15295;42.658;23.374;2022-12-18T06:58:12;27.10;;;13.55;;
27957;SDS011;15295;42.658;23.374;2022-12-18T07:00:37;25.80;;;13.52;;
27957;SDS011;15295;42.658;23.374;2022-12-18T07:03:02;25.17;;;14.50;;
27957;SDS011;15295;42.658;23.374;2022-12-18T07:05:28;34.13;;;15.13;;
27957;SDS011;15295;42.658;23.374;2022-12-18T07:07:53;23.55;;;13.90;;
27957;SDS011;15295;42.658;23.374;2022-12-18T07:10:19;28.60;;;14.52;;
27957;SDS011;15295;42.658;23.374;2022-12-18T07:12:44;27.20;;;14.90;;
27957;SDS011;15295;42.658;23.374;2022-12-18T07:15:10;25.98;;;14.10;;
27957;SDS011;15295;42.658;23.374;2022-12-18T07:17:36;25.70;;;14.23;;
27957;SDS011;15295;42.658;23.374;2022-12-18T07:20:05;25.27;;;13.90;;
27957;SDS011;15295;42.658;23.374;2022-12-18T07:22:32;27.38;;;14.02;;
27957;SDS011;15295;42.658;23.374;2022-12-18T07:24:58;25.70;;;13.82;;
27957;SDS011;15295;42.658;23.374;2022-12-18T07:27:23;27.33;;;14.27;;
27957;SDS011;15295;42.658;23.374;2022-12-18T07:29:49;28.48;;;14.18;;
27957;SDS011;15295;42.658;23.374;2022-12-18T07:32:14;26.48;;;14.93;;
27957;SDS011;15295;42.658;23.374;2022-12-18T07:34:40;28.95;;;14.68;;
27957;SDS011;15295;42.658;23.374;2022-12-18T07:37:05;29.77;;;14.68;;
27957;SDS011;15295;42.658;23.374;2022-12-18T07:39:31;26.92;;;15.60;;
27957;SDS011;15295;42.658;23.374;2022-12-18T07:41:56;25.80;;;14.10;;
27957;SDS011;15295;42.658;23.374;2022-12-18T07:44:40;30.50;;;14.80;;
27957;SDS011;15295;42.658;23.374;2022-12-18T07:47:05;29.05;;;15.40;;
27957;SDS011;15295;42.658;23.374;2022-12-18T07:49:31;30.63;;;16.08;;
27957;SDS011;15295;42.658;23.374;2022-12-18T07:51:56;28.75;;;15.48;;
27957;SDS011;15295;42.658;23.374;2022-12-18T07:54:23;32.58;;;16.60;;
27957;SDS011;15295;42.658;23.374;2022-12-18T07:56:50;35.70;;;17.52;;
27957;SDS011;15295;42.658;23.374;2022-12-18T07:59:16;42.28;;;19.70;;
27957;SDS011;15295;42.658;23.374;2022-12-18T08:01:42;34.78;;;18.02;;
27957;SDS011;15295;42.658;23.374;2022-12-18T08:04:07;33.00;;;17.92;;
27957;SDS011;15295;42.658;23.374;2022-12-18T08:06:33;46.63;;;22.70;;
27957;SDS011;15295;42.658;23.374;2022-12-18T08:08:59;51.15;;;25.40;;
27957;SDS011;15295;42.658;23.374;2022-12-18T08:11:27;89.60;;;46.20;;
27957;SDS011;15295;42.658;23.374;2022-12-18T08:13:53;41.22;;;22.10;;
27957;SDS011;15295;42.658;23.374;2022-12-18T08:16:20;42.05;;;20.95;;
27957;SDS011;15295;42.658;23.374;2022-12-18T08:18:46;38.17;;;21.27;;
27957;SDS011;15295;42.658;23.374;2022-12-18T08:21:19;43.05;;;21.58;;
27957;SDS011;15295;42.658;23.374;2022-12-18T08:23:49;42.58;;;21.70;;
27957;SDS011;15295;42.658;23.374;2022-12-18T08:26:16;39.42;;;19.50;;
27957;SDS011;15295;42.658;23.374;2022-12-18T08:28:41;34.78;;;17.33;;
27957;SDS011;15295;42.658;23.374;2022-12-18T08:31:07;38.17;;;19.40;;
27957;SDS011;15295;42.658;23.374;2022-12-18T08:33:37;43.60;;;21.88;;
27957;SDS011;15295;42.658;23.374;2022-12-18T08:36:05;41.35;;;20.88;;
27957;SDS011;15295;42.658;23.374;2022-12-18T08:38:34;49.88;;;23.85;;
27957;SDS011;15295;42.658;23.374;2022-12-18T08:43:36;37.70;;;19.73;;
27957;SDS011;15295;42.658;23.374;2022-12-18T08:46:21;35.35;;;19.00;;
27957;SDS011;15295;42.658;23.374;2022-12-18T08:48:51;33.50;;;17.60;;
27957;SDS011;15295;42.658;23.374;2022-12-18T08:51:37;33.97;;;18.10;;
27957;SDS011;15295;42.658;23.374;2022-12-18T08:54:11;38.35;;;18.85;;
27957;SDS011;15295;42.658;23.374;2022-12-18T08:59:15;34.13;;;17.83;;
27957;SDS011;15295;42.658;23.374;2022-12-18T09:01:46;39.22;;;19.25;;
27957;SDS011;15295;42.658;23.374;2022-12-18T09:04:12;34.47;;;17.67;;
27957;SDS011;15295;42.658;23.374;2022-12-18T09:06:38;33.67;;;17.40;;
27957;SDS011;15295;42.658;23.374;2022-12-18T09:09:04;35.08;;;17.63;;
27957;SDS011;15295;42.658;23.374;2022-12-18T09:11:44;34.47;;;17.25;;
27957;SDS011;15295;42.658;23.374;2022-12-18T09:16:47;31.58;;;16.40;;
27957;SDS011;15295;42.658;23.374;2022-12-18T09:19:16;33.42;;;17.25;;
27957;SDS011;15295;42.658;23.374;2022-12-18T09:21:42;31.88;;;15.90;;
27957;SDS011;15295;42.658;23.374;2022-12-18T09:24:14;34.10;;;16.83;;
27957;SDS011;15295;42.658;23.374;2022-12-18T09:27:04;37.05;;;17.50;;
27957;SDS011;15295;42.658;23.374;2022-12-18T09:29:29;35.72;;;17.55;;
27957;SDS011;15295;42.658;23.374;2022-12-18T09:31:56;34.78;;;17.67;;
27957;SDS011;15295;42.658;23.374;2022-12-18T09:34:22;34.55;;;17.90;;
27957;SDS011;15295;42.658;23.374;2022-12-18T09:36:47;41.25;;;19.15;;
27957;SDS011;15295;42.658;23.374;2022-12-18T09:39:14;37.03;;;17.90;;
27957;SDS011;15295;42.658;23.374;2022-12-18T09:44:20;33.75;;;16.83;;
27957;SDS011;15295;42.658;23.374;2022-12-18T09:47:10;39.47;;;18.02;;
27957;SDS011;15295;42.658;23.374;2022-12-18T09:49:49;31.77;;;17.27;;
27957;SDS011;15295;42.658;23.374;2022-12-18T09:52:26;36.28;;;16.80;;
27957;SDS011;15295;42.658;23.374;2022-12-18T09:55:00;34.78;;;16.95;;
27957;SDS011;15295;42.658;23.374;2022-12-18T09:57:33;40.78;;;19.55;;
27957;SDS011;15295;42.658;23.374;2022-12-18T10:00:15;36.28;;;18.08;;
27957;SDS011;15295;42.658;23.374;2022-12-18T10:02:43;29.98;;;16.63;;
27957;SDS011;15295;42.658;23.374;2022-12-18T10:05:12;34.70;;;16.88;;
27957;SDS011;15295;42.658;23.374;2022-12-18T10:07:48;34.13;;;16.30;;
27957;SDS011;15295;42.658;23.374;2022-12-18T10:16:00;35.38;;;16.42;;
27957;SDS011;15295;42.658;23.374;2022-12-18T10:21:34;36.28;;;18.45;;
27957;SDS011;15295;42.658;23.374;2022-12-18T10:29:45;31.65;;;16.10;;
27957;SDS011;15295;42.658;23.374;2022-12-18T10:32:29;35.50;;;18.58;;
27957;SDS011;15295;42.658;23.374;2022-12-18T10:34:56;32.08;;;16.23;;
27957;SDS011;15295;42.658;23.374;2022-12-18T10:37:24;33.35;;;15.63;;
27957;SDS011;15295;42.658;23.374;2022-12-18T10:40:08;30.25;;;15.88;;
27957;SDS011;15295;42.658;23.374;2022-12-18T10:45:03;30.23;;;16.40;;
27957;SDS011;15295;42.658;23.374;2022-12-18T10:47:41;35.55;;;17.38;;
27957;SDS011;15295;42.658;23.374;2022-12-18T10:50:17;47.25;;;25.17;;
27957;SDS011;15295;42.658;23.374;2022-12-18T10:55:20;33.78;;;17.55;;
27957;SDS011;15295;42.658;23.374;2022-12-18T10:57:51;34.65;;;17.15;;
27957;SDS011;15295;42.658;23.374;2022-12-18T11:00:29;31.40;;;16.35;;
27957;SDS011;15295;42.658;23.374;2022-12-18T11:02:55;34.65;;;17.95;;
27957;SDS011;15295;42.658;23.374;2022-12-18T11:05:30;33.33;;;17.10;;
27957;SDS011;15295;42.658;23.374;2022-12-18T11:08:04;40.10;;;19.40;;
27957;SDS011;15295;42.658;23.374;2022-12-18T11:29:39;26.27;;;14.45;;
27957;SDS011;15295;42.658;23.374;2022-12-18T11:40:56;28.95;;;14.52;;
27957;SDS011;15295;42.658;23.374;2022-12-18T11:43:31;32.90;;;15.60;;
27957;SDS011;15295;42.658;23.374;2022-12-18T11:46:36;32.47;;;14.77;;
27957;SDS011;15295;42.658;23.374;2022-12-18T11:49:40;34.42;;;15.65;;
27957;SDS011;15295;42.658;23.374;2022-12-18T11:57:20;35.03;;;16.42;;
27957;SDS011;15295;42.658;23.374;2022-12-18T12:00:21;30.92;;;16.27;;
27957;SDS011;15295;42.658;23.374;2022-12-18T12:11:30;30.60;;;16.30;;
27957;SDS011;15295;42.658;23.374;2022-12-18T12:16:48;34.25;;;16.08;;
27957;SDS011;15295;42.658;23.374;2022-12-18T12:21:58;31.00;;;15.57;;
27957;SDS011;15295;42.658;23.374;2022-12-18T12:27:22;37.92;;;18.88;;
27957;SDS011;15295;42.658;23.374;2022-12-18T12:32:30;35.30;;;18.38;;
27957;SDS011;15295;42.658;23.374;2022-12-18T12:40:48;30.80;;;15.93;;
27957;SDS011;15295;42.658;23.374;2022-12-18T12:46:40;36.10;;;16.98;;
27957;SDS011;15295;42.658;23.374;2022-12-18T12:49:20;38.60;;;18.23;;
27957;SDS011;15295;42.658;23.374;2022-12-18T12:51:52;33.45;;;16.88;;
27957;SDS011;15295;42.658;23.374;2022-12-18T12:54:54;34.80;;;16.35;;
27957;SDS011;15295;42.658;23.374;2022-12-18T12:57:26;33.47;;;17.42;;
27957;SDS011;15295;42.658;23.374;2022-12-18T13:00:11;37.45;;;18.25;;
27957;SDS011;15295;42.658;23.374;2022-12-18T13:10:52;35.33;;;18.30;;
27957;SDS011;15295;42.658;23.374;2022-12-18T13:13:53;35.55;;;18.00;;
27957;SDS011;15295;42.658;23.374;2022-12-18T13:16:23;33.63;;;17.55;;
27957;SDS011;15295;42.658;23.374;2022-12-18T13:18:55;36.67;;;18.48;;
27957;SDS011;15295;42.658;23.374;2022-12-18T13:34:34;38.45;;;19.25;;
27957;SDS011;15295;42.658;23.374;2022-12-18T13:39:59;36.42;;;17.90;;
27957;SDS011;15295;42.658;23.374;2022-12-18T13:42:34;36.17;;;18.23;;
27957;SDS011;15295;42.658;23.374;2022-12-18T13:48:25;32.63;;;15.48;;
27957;SDS011;15295;42.658;23.374;2022-12-18T13:50:53;33.97;;;17.27;;
27957;SDS011;15295;42.658;23.374;2022-12-18T13:53:27;32.63;;;17.58;;
27957;SDS011;15295;42.658;23.374;2022-12-18T13:55:55;34.53;;;17.23;;
27957;SDS011;15295;42.658;23.374;2022-12-18T13:58:22;37.85;;;18.23;;
27957;SDS011;15295;42.658;23.374;2022-12-18T14:00:47;35.70;;;17.63;;
27957;SDS011;15295;42.658;23.374;2022-12-18T14:03:17;35.83;;;17.85;;
27957;SDS011;15295;42.658;23.374;2022-12-18T14:05:56;37.25;;;18.58;;
27957;SDS011;15295;42.658;23.374;2022-12-18T14:08:37;35.22;;;18.48;;
27957;SDS011;15295;42.658;23.374;2022-12-18T14:11:07;37.03;;;19.05;;
27957;SDS011;15295;42.658;23.374;2022-12-18T14:13:45;34.03;;;17.40;;
27957;SDS011;15295;42.658;23.374;2022-12-18T14:16:12;36.45;;;19.58;;
27957;SDS011;15295;42.658;23.374;2022-12-18T14:18:46;41.40;;;18.77;;
27957;SDS011;15295;42.658;23.374;2022-12-18T14:26:49;32.30;;;17.00;;
27957;SDS011;15295;42.658;23.374;2022-12-18T14:29:25;33.20;;;17.35;;
27957;SDS011;15295;42.658;23.374;2022-12-18T14:32:13;32.83;;;17.23;;
27957;SDS011;15295;42.658;23.374;2022-12-18T14:34:53;42.45;;;19.65;;
27957;SDS011;15295;42.658;23.374;2022-12-18T14:37:59;40.88;;;19.98;;
27957;SDS011;15295;42.658;23.374;2022-12-18T14:41:02;33.33;;;16.95;;
27957;SDS011;15295;42.658;23.374;2022-12-18T14:47:13;34.90;;;17.55;;
27957;SDS011;15295;42.658;23.374;2022-12-18T14:49:56;35.65;;;17.42;;
27957;SDS011;15295;42.658;23.374;2022-12-18T15:08:00;32.05;;;15.57;;
27957;SDS011;15295;42.658;23.374;2022-12-18T15:13:08;34.20;;;16.45;;
27957;SDS011;15295;42.658;23.374;2022-12-18T15:18:33;27.73;;;15.23;;
27957;SDS011;15295;42.658;23.374;2022-12-18T15:29:15;28.52;;;14.98;;
27957;SDS011;15295;42.658;23.374;2022-12-18T15:39:49;30.45;;;15.65;;
27957;SDS011;15295;42.658;23.374;2022-12-18T15:50:17;29.35;;;15.80;;
27957;SDS011;15295;42.658;23.374;2022-12-18T15:52:57;29.85;;;14.45;;
27957;SDS011;15295;42.658;23.374;2022-12-18T15:55:46;31.23;;;15.40;;
27957;SDS011;15295;42.658;23.374;2022-12-18T15:58:46;32.80;;;15.07;;
27957;SDS011;15295;42.658;23.374;2022-12-18T16:04:15;32.70;;;17.17;;
27957;SDS011;15295;42.658;23.374;2022-12-18T16:07:15;34.03;;;16.92;;
27957;SDS011;15295;42.658;23.374;2022-12-18T16:09:41;33.97;;;18.23;;
27957;SDS011;15295;42.658;23.374;2022-12-18T16:12:42;32.45;;;16.55;;
27957;SDS011;15295;42.658;23.374;2022-12-18T16:15:42;33.63;;;15.65;;
27957;SDS011;15295;42.658;23.374;2022-12-18T16:18:44;35.30;;;18.15;;
27957;SDS011;15295;42.658;23.374;2022-12-18T16:28:04;34.83;;;16.67;;
27957;SDS011;15295;42.658;23.374;2022-12-18T16:30:37;37.60;;;17.27;;
27957;SDS011;15295;42.658;23.374;2022-12-18T16:51:50;31.80;;;15.65;;
27957;SDS011;15295;42.658;23.374;2022-12-18T16:54:54;31.80;;;15.35;;
27957;SDS011;15295;42.658;23.374;2022-12-18T16:58:29;33.90;;;15.63;;
27957;SDS011;15295;42.658;23.374;2022-12-18T17:01:59;30.23;;;15.10;;
27957;SDS011;15295;42.658;23.374;2022-12-18T17:05:10;48.13;;;23.10;;
27957;SDS011;15295;42.658;23.374;2022-12-18T17:08:08;33.05;;;16.23;;
27957;SDS011;15295;42.658;23.374;2022-12-18T17:11:17;31.70;;;15.57;;
27957;SDS011;15295;42.658;23.374;2022-12-18T17:13:56;30.13;;;14.57;;
27957;SDS011;15295;42.658;23.374;2022-12-18T17:16:51;33.95;;;16.20;;
27957;SDS011;15295;42.658;23.374;2022-12-18T17:19:45;29.55;;;15.38;;
27957;SDS011;15295;42.658;23.374;2022-12-18T17:33:03;30.25;;;16.00;;
27957;SDS011;15295;42.658;23.374;2022-12-18T17:41:15;30.40;;;16.00;;
27957;SDS011;15295;42.658;23.374;2022-12-18T17:44:14;37.58;;;15.88;;
27957;SDS011;15295;42.658;23.374;2022-12-18T17:47:14;34.53;;;14.93;;
27957;SDS011;15295;42.658;23.374;2022-12-18T17:49:53;33.58;;;16.13;;
27957;SDS011;15295;42.658;23.374;2022-12-18T17:52:28;31.85;;;16.45;;
27957;SDS011;15295;42.658;23.374;2022-12-18T17:55:04;33.67;;;16.25;;
27957;SDS011;15295;42.658;23.374;2022-12-18T17:57:55;36.35;;;16.42;;
27957;SDS011;15295;42.658;23.374;2022-12-18T18:00:35;30.98;;;15.15;;
27957;SDS011;15295;42.658;23.374;2022-12-18T18:03:12;34.88;;;16.58;;
27957;SDS011;15295;42.658;23.374;2022-12-18T18:06:03;33.92;;;16.67;;
27957;SDS011;15295;42.658;23.374;2022-12-18T18:08:35;31.50;;;15.05;;
27957;SDS011;15295;42.658;23.374;2022-12-18T18:11:12;35.60;;;16.80;;
27957;SDS011;15295;42.658;23.374;2022-12-18T18:14:20;30.88;;;15.27;;
27957;SDS011;15295;42.658;23.374;2022-12-18T18:17:13;33.30;;;16.15;;
27957;SDS011;15295;42.658;23.374;2022-12-18T18:19:59;35.25;;;16.98;;
27957;SDS011;15295;42.658;23.374;2022-12-18T18:22:31;34.25;;;15.80;;
27957;SDS011;15295;42.658;23.374;2022-12-18T18:24:58;31.60;;;15.02;;
27957;SDS011;15295;42.658;23.374;2022-12-18T18:27:30;34.63;;;15.32;;
27957;SDS011;15295;42.658;23.374;2022-12-18T18:32:55;34.88;;;16.23;;
27957;SDS011;15295;42.658;23.374;2022-12-18T18:35:49;33.97;;;16.80;;
27957;SDS011;15295;42.658;23.374;2022-12-18T18:38:38;37.55;;;16.00;;
27957;SDS011;15295;42.658;23.374;2022-12-18T18:41:11;32.83;;;15.85;;
27957;SDS011;15295;42.658;23.374;2022-12-18T18:43:43;37.08;;;16.92;;
27957;SDS011;15295;42.658;23.374;2022-12-18T18:46:13;39.20;;;18.33;;
27957;SDS011;15295;42.658;23.374;2022-12-18T18:48:51;48.10;;;19.23;;
27957;SDS011;15295;42.658;23.374;2022-12-18T18:51:23;34.58;;;16.25;;
27957;SDS011;15295;42.658;23.374;2022-12-18T18:54:04;31.95;;;15.43;;
27957;SDS011;15295;42.658;23.374;2022-12-18T18:56:30;35.42;;;15.25;;
27957;SDS011;15295;42.658;23.374;2022-12-18T18:59:19;34.40;;;15.25;;
27957;SDS011;15295;42.658;23.374;2022-12-18T19:02:11;31.33;;;15.75;;
27957;SDS011;15295;42.658;23.374;2022-12-18T19:04:54;33.72;;;16.35;;
27957;SDS011;15295;42.658;23.374;2022-12-18T19:07:47;34.33;;;16.75;;
27957;SDS011;15295;42.658;23.374;2022-12-18T19:10:19;37.25;;;17.75;;
27957;SDS011;15295;42.658;23.374;2022-12-18T19:12:46;33.55;;;16.58;;
27957;SDS011;15295;42.658;23.374;2022-12-18T19:15:30;36.22;;;16.90;;
27957;SDS011;15295;42.658;23.374;2022-12-18T19:17:58;50.72;;;22.88;;
27957;SDS011;15295;42.658;23.374;2022-12-18T19:20:27;48.53;;;23.35;;
27957;SDS011;15295;42.658;23.374;2022-12-18T19:22:55;40.10;;;18.20;;
27957;SDS011;15295;42.658;23.374;2022-12-18T19:25:22;37.10;;;18.52;;
27957;SDS011;15295;42.658;23.374;2022-12-18T19:27:54;41.57;;;18.60;;